createdAt,value
2022-10-12T00:00:25.519Z,81
2022-10-12T00:01:32.164Z,81
2022-10-12T00:02:39.266Z,81
2022-10-12T00:03:46.488Z,81
2022-10-12T00:06:00.619Z,81
2022-10-12T00:07:07.100Z,81
2022-10-12T00:08:14.357Z,81
2022-10-12T00:09:21.310Z,81
2022-10-12T00:10:28.487Z,81
2022-10-12T00:11:35.546Z,81
2022-10-12T00:12:42.155Z,81
2022-10-12T00:13:49.369Z,81
2022-10-12T00:14:56.396Z,81
2022-10-12T00:16:03.442Z,80
2022-10-12T00:17:10.557Z,80
2022-10-12T00:18:17.248Z,80
2022-10-12T00:19:24.345Z,80
2022-10-12T00:20:31.324Z,81
2022-10-12T00:21:38.500Z,80
2022-10-12T00:22:45.588Z,80
2022-10-12T00:24:59.334Z,80
2022-10-12T00:26:06.366Z,80
2022-10-12T00:27:13.477Z,80
2022-10-12T00:28:20.628Z,80
2022-10-12T00:29:27.159Z,80
2022-10-12T00:30:34.286Z,80
2022-10-12T00:32:48.519Z,80
2022-10-12T00:33:55.697Z,80
2022-10-12T00:35:02.126Z,80
2022-10-12T00:36:09.270Z,80
2022-10-12T00:37:16.427Z,80
2022-10-12T00:38:23.475Z,80
2022-10-12T00:39:30.548Z,80
2022-10-12T00:40:37.406Z,80
2022-10-12T00:41:44.819Z,80
2022-10-12T00:42:51.368Z,81
2022-10-12T00:43:59.042Z,81
2022-10-12T00:45:05.042Z,81
2022-10-12T00:46:12.141Z,81
2022-10-12T00:47:19.318Z,81
2022-10-12T00:48:26.426Z,81
2022-10-12T00:49:33.575Z,81
2022-10-12T00:50:40.570Z,81
2022-10-12T00:52:54.320Z,81
2022-10-12T00:54:01.406Z,81
2022-10-12T00:55:08.557Z,81
2022-10-12T00:56:15.139Z,81
2022-10-12T00:57:22.210Z,81
2022-10-12T00:58:29.335Z,81
2022-10-12T00:59:36.459Z,81
2022-10-12T01:00:43.590Z,81
2022-10-12T01:01:50.147Z,81
2022-10-12T01:02:57.198Z,81
2022-10-12T01:04:04.343Z,81
2022-10-12T01:05:12.013Z,81
2022-10-12T01:06:18.545Z,81
2022-10-12T01:07:25.107Z,81
2022-10-12T01:08:32.208Z,81
2022-10-12T01:09:39.323Z,81
2022-10-12T01:10:46.483Z,81
2022-10-12T01:11:53.510Z,80
2022-10-12T01:13:00.156Z,80
2022-10-12T01:14:07.220Z,80
2022-10-12T01:15:14.315Z,80
2022-10-12T01:16:21.498Z,80
2022-10-12T01:17:28.533Z,80
2022-10-12T01:18:35.115Z,80
2022-10-12T01:19:42.229Z,80
2022-10-12T01:20:49.316Z,80
2022-10-12T01:21:56.401Z,80
2022-10-12T01:23:03.548Z,80
2022-10-12T01:24:10.166Z,80
2022-10-12T01:25:17.247Z,80
2022-10-12T01:26:24.358Z,80
2022-10-12T01:27:31.444Z,80
2022-10-12T01:28:38.598Z,80
2022-10-12T01:29:45.129Z,80
2022-10-12T01:30:52.297Z,80
2022-10-12T01:31:59.347Z,80
2022-10-12T01:34:13.564Z,79
2022-10-12T01:36:27.276Z,79
2022-10-12T01:37:34.451Z,79
2022-10-12T01:38:41.500Z,79
2022-10-12T01:39:48.645Z,79
2022-10-12T01:40:55.183Z,79
2022-10-12T01:42:02.218Z,79
2022-10-12T01:43:09.402Z,79
2022-10-12T01:44:16.501Z,79
2022-10-12T01:45:23.536Z,79
2022-10-12T01:46:30.751Z,79
2022-10-12T01:47:37.520Z,79
2022-10-12T01:48:44.413Z,79
2022-10-12T01:49:51.493Z,79
2022-10-12T01:50:58.703Z,78
2022-10-12T01:52:05.207Z,78
2022-10-12T01:53:12.231Z,78
2022-10-12T01:54:18.874Z,78
2022-10-12T01:55:26.516Z,78
2022-10-12T01:56:33.066Z,78
2022-10-12T01:57:40.723Z,78
2022-10-12T01:58:47.307Z,78
2022-10-12T01:59:54.423Z,78
2022-10-12T02:01:01.582Z,78
2022-10-12T02:02:08.088Z,78
2022-10-12T02:03:15.227Z,78
2022-10-12T02:04:22.276Z,78
2022-10-12T02:05:29.430Z,78
2022-10-12T02:06:36.516Z,78
2022-10-12T02:07:43.048Z,78
2022-10-12T02:08:50.215Z,78
2022-10-12T02:11:04.445Z,78
2022-10-12T02:12:11.524Z,78
2022-10-12T02:13:18.100Z,78
2022-10-12T02:14:25.183Z,78
2022-10-12T02:15:32.381Z,79
2022-10-12T02:16:39.509Z,79
2022-10-12T02:17:46.519Z,79
2022-10-12T02:18:53.108Z,79
2022-10-12T02:20:00.210Z,79
2022-10-12T02:21:07.303Z,79
2022-10-12T02:22:13.888Z,79
2022-10-12T02:23:21.558Z,79
2022-10-12T02:24:28.182Z,79
2022-10-12T02:25:35.243Z,79
2022-10-12T02:26:42.350Z,79
2022-10-12T02:28:56.521Z,79
2022-10-12T02:30:03.095Z,79
2022-10-12T02:31:10.237Z,79
2022-10-12T02:32:17.346Z,79
2022-10-12T02:33:24.436Z,79
2022-10-12T02:34:31.510Z,79
2022-10-12T02:35:38.090Z,79
2022-10-12T02:36:45.293Z,79
2022-10-12T02:37:52.368Z,78
2022-10-12T02:40:06.542Z,78
2022-10-12T02:41:13.129Z,79
2022-10-12T02:42:20.230Z,79
2022-10-12T02:43:27.345Z,79
2022-10-12T02:44:34.479Z,79
2022-10-12T02:45:41.509Z,79
2022-10-12T02:46:48.167Z,79
2022-10-12T02:47:55.287Z,79
2022-10-12T02:49:02.340Z,79
2022-10-12T02:51:16.118Z,79
2022-10-12T02:52:23.136Z,79
2022-10-12T02:53:30.265Z,79
2022-10-12T02:54:37.387Z,79
2022-10-12T02:55:44.480Z,79
2022-10-12T02:56:51.558Z,79
2022-10-12T02:57:58.736Z,79
2022-10-12T02:59:05.278Z,79
2022-10-12T03:00:12.322Z,79
2022-10-12T03:02:26.105Z,79
2022-10-12T03:03:33.176Z,79
2022-10-12T03:04:40.299Z,79
2022-10-12T03:05:47.396Z,79
2022-10-12T03:06:54.519Z,79
2022-10-12T03:08:01.064Z,79
2022-10-12T03:10:15.264Z,79
2022-10-12T03:11:22.427Z,79
2022-10-12T03:12:31.916Z,79
2022-10-12T03:13:36.088Z,79
2022-10-12T03:14:43.294Z,79
2022-10-12T03:15:50.276Z,79
2022-10-12T03:16:57.418Z,79
2022-10-12T03:19:11.072Z,79
2022-10-12T03:20:18.195Z,79
2022-10-12T03:21:25.327Z,79
2022-10-12T03:22:32.408Z,79
2022-10-12T03:23:39.541Z,79
2022-10-12T03:24:46.095Z,79
2022-10-12T03:25:53.295Z,79
2022-10-12T03:27:00.309Z,79
2022-10-12T03:28:07.429Z,79
2022-10-12T03:29:14.537Z,79
2022-10-12T03:30:21.096Z,79
2022-10-12T03:31:28.240Z,79
2022-10-12T03:32:35.338Z,79
2022-10-12T03:33:42.426Z,79
2022-10-12T03:34:49.500Z,78
2022-10-12T03:35:56.144Z,78
2022-10-12T03:37:03.210Z,78
2022-10-12T03:38:10.793Z,78
2022-10-12T03:39:17.437Z,78
2022-10-12T03:40:24.539Z,78
2022-10-12T03:41:31.143Z,78
2022-10-12T03:43:45.358Z,77
2022-10-12T03:44:52.405Z,77
2022-10-12T03:45:59.599Z,77
2022-10-12T03:47:06.138Z,77
2022-10-12T03:48:13.182Z,77
2022-10-12T03:49:20.326Z,77
2022-10-12T03:51:34.547Z,77
2022-10-12T03:52:41.082Z,77
2022-10-12T03:53:48.249Z,77
2022-10-12T03:54:55.398Z,77
2022-10-12T03:56:02.401Z,77
2022-10-12T03:57:09.584Z,77
2022-10-12T03:58:16.167Z,77
2022-10-12T03:59:23.250Z,77
2022-10-12T04:00:30.340Z,77
2022-10-12T04:01:38.211Z,77
2022-10-12T04:02:44.128Z,77
2022-10-12T04:03:51.137Z,77
2022-10-12T04:04:58.268Z,77
2022-10-12T04:06:05.392Z,77
2022-10-12T04:07:12.453Z,77
2022-10-12T04:08:19.034Z,77
2022-10-12T04:09:26.147Z,77
2022-10-12T04:10:33.267Z,77
2022-10-12T04:11:40.375Z,78
2022-10-12T04:12:47.476Z,78
2022-10-12T04:13:54.015Z,78
2022-10-12T04:15:01.120Z,78
2022-10-12T04:16:08.342Z,78
2022-10-12T04:17:15.408Z,78
2022-10-12T04:18:22.488Z,78
2022-10-12T04:19:29.093Z,78
2022-10-12T04:20:36.178Z,78
2022-10-12T04:21:43.289Z,78
2022-10-12T04:22:50.347Z,78
2022-10-12T04:23:57.518Z,78
2022-10-12T04:25:04.096Z,78
2022-10-12T04:26:11.140Z,78
2022-10-12T04:27:18.306Z,78
2022-10-12T04:28:25.413Z,78
2022-10-12T04:30:39.102Z,78
2022-10-12T04:32:53.364Z,78
2022-10-12T04:34:00.408Z,78
2022-10-12T04:35:07.518Z,78
2022-10-12T04:36:14.192Z,78
2022-10-12T04:37:21.211Z,78
2022-10-12T04:38:28.292Z,78
2022-10-12T04:39:35.402Z,78
2022-10-12T04:40:42.497Z,78
2022-10-12T04:41:49.125Z,78
2022-10-12T04:42:56.241Z,78
2022-10-12T04:44:03.309Z,78
2022-10-12T04:45:10.383Z,77
2022-10-12T04:47:24.171Z,77
2022-10-12T04:49:38.317Z,77
2022-10-12T04:50:45.427Z,77
2022-10-12T04:51:52.565Z,77
2022-10-12T04:52:59.117Z,77
2022-10-12T04:54:06.180Z,77
2022-10-12T04:55:13.297Z,77
2022-10-12T04:56:20.382Z,77
2022-10-12T04:57:27.577Z,77
2022-10-12T04:58:34.139Z,77
2022-10-12T04:59:41.237Z,77
2022-10-12T05:00:48.338Z,77
2022-10-12T05:01:55.644Z,77
2022-10-12T05:03:02.502Z,77
2022-10-12T05:04:09.170Z,77
2022-10-12T05:05:16.768Z,77
2022-10-12T05:06:23.376Z,77
2022-10-12T05:07:30.393Z,77
2022-10-12T05:08:37.064Z,77
2022-10-12T05:09:44.239Z,77
2022-10-12T05:10:51.237Z,77
2022-10-12T05:11:58.346Z,77
2022-10-12T05:14:12.008Z,77
2022-10-12T05:15:19.170Z,77
2022-10-12T05:17:33.337Z,77
2022-10-12T05:18:40.407Z,77
2022-10-12T05:19:47.064Z,77
2022-10-12T05:20:56.975Z,77
2022-10-12T05:22:01.291Z,77
2022-10-12T05:23:08.345Z,77
2022-10-12T05:24:15.485Z,77
2022-10-12T05:25:22.028Z,77
2022-10-12T05:26:29.216Z,77
2022-10-12T05:27:36.552Z,77
2022-10-12T05:28:43.456Z,77
2022-10-12T05:29:50.421Z,77
2022-10-12T05:30:57.580Z,77
2022-10-12T05:32:04.195Z,77
2022-10-12T05:33:11.268Z,77
2022-10-12T05:34:18.406Z,77
2022-10-12T05:35:25.494Z,77
2022-10-12T05:36:32.073Z,77
2022-10-12T05:37:39.633Z,77
2022-10-12T05:38:46.408Z,77
2022-10-12T05:39:53.379Z,77
2022-10-12T05:41:01.049Z,77
2022-10-12T05:42:07.158Z,77
2022-10-12T05:43:14.178Z,77
2022-10-12T05:44:21.233Z,77
2022-10-12T05:45:28.406Z,77
2022-10-12T05:46:35.482Z,77
2022-10-12T05:47:42.083Z,77
2022-10-12T05:48:49.214Z,77
2022-10-12T05:49:56.270Z,77
2022-10-12T05:51:03.344Z,77
2022-10-12T05:52:10.536Z,77
2022-10-12T05:53:17.058Z,77
2022-10-12T05:55:31.286Z,77
2022-10-12T05:56:38.385Z,77
2022-10-12T05:57:49.638Z,77
2022-10-12T05:58:52.098Z,78
2022-10-12T05:59:59.227Z,77
2022-10-12T06:01:06.366Z,77
2022-10-12T06:02:13.454Z,77
2022-10-12T06:03:25.376Z,78
2022-10-12T06:04:27.111Z,77
2022-10-12T06:05:34.221Z,77
2022-10-12T06:06:41.584Z,77
2022-10-12T06:07:48.419Z,77
2022-10-12T06:08:55.574Z,77
2022-10-12T06:10:02.065Z,77
2022-10-12T06:11:09.318Z,77
2022-10-12T06:12:16.299Z,77
2022-10-12T06:13:23.383Z,78
2022-10-12T06:14:30.030Z,78
2022-10-12T06:15:37.267Z,78
2022-10-12T06:16:44.200Z,78
2022-10-12T06:17:51.288Z,78
2022-10-12T06:18:57.905Z,78
2022-10-12T06:20:05.042Z,78
2022-10-12T06:21:32.314Z,78
2022-10-12T06:22:19.218Z,78
2022-10-12T06:23:26.311Z,78
2022-10-12T06:24:33.399Z,78
2022-10-12T06:25:40.025Z,78
2022-10-12T06:26:47.168Z,78
2022-10-12T06:27:54.246Z,78
2022-10-12T06:29:01.338Z,78
2022-10-12T06:30:08.473Z,78
2022-10-12T06:31:15.069Z,78
2022-10-12T06:32:22.149Z,78
2022-10-12T06:33:29.288Z,78
2022-10-12T06:34:36.331Z,78
2022-10-12T06:36:50.056Z,79
2022-10-12T06:37:57.195Z,79
2022-10-12T06:39:04.285Z,79
2022-10-12T06:40:11.309Z,79
2022-10-12T06:41:18.516Z,79
2022-10-12T06:42:25.067Z,80
2022-10-12T06:43:32.136Z,80
2022-10-12T06:44:39.284Z,80
2022-10-12T06:45:46.355Z,80
2022-10-12T06:46:52.916Z,80
2022-10-12T06:48:00.086Z,80
2022-10-12T06:49:07.186Z,80
2022-10-12T06:50:14.257Z,81
2022-10-12T06:51:21.357Z,81
2022-10-12T06:52:28.505Z,81
2022-10-12T06:54:42.176Z,81
2022-10-12T06:55:49.286Z,81
2022-10-12T06:56:58.707Z,81
2022-10-12T06:58:03.523Z,82
2022-10-12T06:59:10.058Z,82
2022-10-12T07:00:17.178Z,82
2022-10-12T07:01:24.434Z,82
2022-10-12T07:02:31.986Z,82
2022-10-12T07:03:37.954Z,82
2022-10-12T07:04:45.121Z,82
2022-10-12T07:05:52.153Z,82
2022-10-12T07:06:59.328Z,82
2022-10-12T07:08:06.374Z,83
2022-10-12T07:09:12.931Z,83
2022-10-12T07:10:20.035Z,83
2022-10-12T07:11:27.307Z,83
2022-10-12T07:12:35.023Z,83
2022-10-12T07:13:41.358Z,83
2022-10-12T07:15:55.138Z,83
2022-10-12T07:18:09.272Z,84
2022-10-12T07:19:16.436Z,84
2022-10-12T07:20:23.033Z,84
2022-10-12T07:21:30.134Z,84
2022-10-12T07:22:37.196Z,84
2022-10-12T07:23:46.157Z,84
2022-10-12T07:24:51.391Z,85
2022-10-12T07:25:58.047Z,85
2022-10-12T07:27:05.145Z,85
2022-10-12T07:28:12.208Z,85
2022-10-12T07:29:19.289Z,85
2022-10-12T07:30:26.412Z,85
2022-10-12T07:31:33.042Z,86
2022-10-12T07:32:40.180Z,86
2022-10-12T07:33:47.263Z,86
2022-10-12T07:34:54.358Z,86
2022-10-12T07:36:14.677Z,86
2022-10-12T07:37:08.060Z,86
2022-10-12T07:38:15.136Z,86
2022-10-12T07:39:22.297Z,86
2022-10-12T07:40:29.322Z,87
2022-10-12T07:41:36.543Z,87
2022-10-12T07:43:50.205Z,87
2022-10-12T07:44:57.308Z,87
2022-10-12T07:46:04.346Z,87
2022-10-12T07:47:11.472Z,87
2022-10-12T07:48:18.074Z,87
2022-10-12T07:49:25.147Z,87
2022-10-12T07:50:32.299Z,88
2022-10-12T07:51:39.344Z,88
2022-10-12T07:52:46.466Z,88
2022-10-12T07:53:53.052Z,88
2022-10-12T07:55:00.185Z,88
2022-10-12T07:56:07.279Z,88
2022-10-12T07:59:28.126Z,88
2022-10-12T08:00:35.192Z,88
2022-10-12T08:01:42.523Z,89
2022-10-12T08:02:49.410Z,89
2022-10-12T08:04:01.246Z,89
2022-10-12T08:05:03.073Z,89
2022-10-12T08:06:10.198Z,89
2022-10-12T08:07:17.297Z,89
2022-10-12T08:08:24.371Z,89
2022-10-12T08:09:30.911Z,89
2022-10-12T08:11:45.205Z,90
2022-10-12T08:12:52.458Z,90
2022-10-12T08:13:59.362Z,90
2022-10-12T08:15:06.008Z,90
2022-10-12T08:16:13.587Z,90
2022-10-12T08:17:20.263Z,90
2022-10-12T08:18:27.275Z,90
2022-10-12T08:19:35.406Z,90
2022-10-12T08:20:40.965Z,91
2022-10-12T08:21:48.105Z,91
2022-10-12T08:22:55.174Z,91
2022-10-12T08:24:02.299Z,91
2022-10-12T08:25:09.446Z,91
2022-10-12T08:26:16.056Z,91
2022-10-12T08:27:23.128Z,91
2022-10-12T08:28:30.270Z,91
2022-10-12T08:29:37.286Z,92
2022-10-12T08:30:44.434Z,92
2022-10-12T08:31:50.986Z,92
2022-10-12T08:32:58.097Z,92
2022-10-12T08:34:05.230Z,92
2022-10-12T08:35:12.275Z,92
2022-10-12T08:36:19.427Z,92
2022-10-12T08:37:26.007Z,92
2022-10-12T08:40:47.537Z,93
2022-10-12T08:41:54.441Z,93
2022-10-12T08:43:00.968Z,93
2022-10-12T08:44:08.104Z,93
2022-10-12T08:45:15.246Z,93
2022-10-12T08:46:22.308Z,93
2022-10-12T08:47:29.497Z,93
2022-10-12T08:48:36.033Z,93
2022-10-12T08:49:47.428Z,94
2022-10-12T08:50:50.321Z,94
2022-10-12T08:51:57.367Z,94
2022-10-12T08:53:04.460Z,93
2022-10-12T08:54:11.015Z,94
2022-10-12T08:55:18.182Z,93
2022-10-12T08:56:25.252Z,93
2022-10-12T08:57:32.346Z,94
2022-10-12T08:58:39.485Z,94
2022-10-12T08:59:46.060Z,95
2022-10-12T09:02:00.423Z,95
2022-10-12T09:03:07.392Z,95
2022-10-12T09:04:13.903Z,96
2022-10-12T09:05:21.043Z,96
2022-10-12T09:06:28.137Z,95
2022-10-12T09:07:35.274Z,94
2022-10-12T09:08:42.350Z,94
2022-10-12T09:09:49.452Z,94
2022-10-12T09:10:56.077Z,94
2022-10-12T09:12:03.100Z,94
2022-10-12T09:13:10.287Z,94
2022-10-12T09:14:17.718Z,94
2022-10-12T09:15:24.878Z,94
2022-10-12T09:16:31.438Z,94
2022-10-12T09:17:38.261Z,94
2022-10-12T09:18:45.291Z,94
2022-10-12T09:19:52.887Z,95
2022-10-12T09:22:06.151Z,97
2022-10-12T09:23:13.148Z,95
2022-10-12T09:24:20.252Z,95
2022-10-12T09:25:27.362Z,95
2022-10-12T09:26:33.956Z,95
2022-10-12T09:27:45.116Z,95
2022-10-12T09:28:48.286Z,96
2022-10-12T09:29:55.262Z,97
2022-10-12T09:32:08.975Z,97
2022-10-12T09:33:16.105Z,96
2022-10-12T09:35:30.303Z,96
2022-10-12T09:36:37.416Z,97
2022-10-12T09:37:44.008Z,96
2022-10-12T09:38:51.034Z,96
2022-10-12T09:39:58.164Z,96
2022-10-12T09:41:05.328Z,95
2022-10-12T09:42:12.370Z,96
2022-10-12T09:43:18.977Z,96
2022-10-12T09:44:26.106Z,97
2022-10-12T09:45:33.182Z,97
2022-10-12T09:46:40.382Z,97
2022-10-12T09:47:47.408Z,96
2022-10-12T09:48:54.114Z,97
2022-10-12T09:50:01.094Z,97
2022-10-12T09:51:08.202Z,97
2022-10-12T09:52:15.345Z,98
2022-10-12T09:53:22.421Z,98
2022-10-12T09:54:29.040Z,98
2022-10-12T09:55:36.109Z,98
2022-10-12T09:56:43.215Z,99
2022-10-12T09:57:50.296Z,99
2022-10-12T09:58:57.464Z,99
2022-10-12T10:00:04.059Z,98
2022-10-12T10:01:11.136Z,100
2022-10-12T10:03:30.606Z,100
2022-10-12T10:05:39.054Z,100
2022-10-12T10:06:46.155Z,100
2022-10-12T10:07:53.175Z,100
2022-10-12T10:08:59.851Z,100
2022-10-12T10:10:06.964Z,100
2022-10-12T10:11:14.058Z,100
2022-10-12T10:12:21.168Z,100
2022-10-12T10:13:28.221Z,100
2022-10-12T10:14:35.367Z,99
2022-10-12T10:15:41.931Z,99
2022-10-12T10:16:49.159Z,99
2022-10-12T10:17:56.195Z,99
2022-10-12T10:19:03.205Z,99
2022-10-12T10:20:11.388Z,99
2022-10-12T10:21:17.271Z,99
2022-10-12T10:22:23.990Z,99
2022-10-12T10:23:31.680Z,99
2022-10-12T10:24:38.514Z,98
2022-10-12T10:25:45.352Z,99
2022-10-12T10:26:52.003Z,99
2022-10-12T10:27:59.041Z,99
2022-10-12T10:29:06.198Z,99
2022-10-12T10:30:25.466Z,99
2022-10-12T10:31:20.309Z,98
2022-10-12T10:32:26.981Z,98
2022-10-12T10:33:34.089Z,97
2022-10-12T10:34:41.169Z,98
2022-10-12T10:35:50.095Z,97
2022-10-12T10:36:54.981Z,97
2022-10-12T10:38:01.952Z,97
2022-10-12T10:39:09.132Z,96
2022-10-12T10:40:16.455Z,96
2022-10-12T10:41:23.230Z,95
2022-10-12T10:42:32.218Z,94
2022-10-12T10:44:44.061Z,94
2022-10-12T10:45:51.201Z,94
2022-10-12T10:46:58.255Z,94
2022-10-12T10:48:05.394Z,94
2022-10-12T10:49:11.975Z,94
2022-10-12T10:50:19.481Z,94
2022-10-12T10:51:26.139Z,93
2022-10-12T10:52:33.296Z,93
2022-10-12T10:53:40.351Z,93
2022-10-12T10:54:46.956Z,93
2022-10-12T10:55:54.133Z,93
2022-10-12T10:57:01.224Z,93
2022-10-12T10:58:08.358Z,92
2022-10-12T11:00:37.964Z,92
2022-10-12T11:01:30.235Z,91
2022-10-12T11:02:36.155Z,90
2022-10-12T11:03:45.954Z,90
2022-10-12T11:05:57.035Z,90
2022-10-12T11:07:04.181Z,89
2022-10-12T11:09:18.360Z,89
2022-10-12T11:10:25.445Z,89
2022-10-12T11:11:32.024Z,89
2022-10-12T11:12:39.149Z,88
2022-10-12T11:13:46.209Z,88
2022-10-12T11:14:53.317Z,88
2022-10-12T11:16:00.438Z,88
2022-10-12T11:17:07.057Z,88
2022-10-12T11:18:14.138Z,88
2022-10-12T11:19:21.244Z,88
2022-10-12T11:20:28.360Z,88
2022-10-12T11:21:35.465Z,88
2022-10-12T11:22:42.017Z,88
2022-10-12T11:23:49.171Z,88
2022-10-12T11:26:03.323Z,88
2022-10-12T11:27:10.511Z,87
2022-10-12T11:28:17.068Z,87
2022-10-12T11:29:24.211Z,87
2022-10-12T11:30:31.243Z,87
2022-10-12T11:31:38.326Z,87
2022-10-12T11:33:52.092Z,87
2022-10-12T11:34:59.179Z,87
2022-10-12T11:36:06.337Z,87
2022-10-12T11:37:19.972Z,87
2022-10-12T11:38:20.052Z,87
2022-10-12T11:39:27.128Z,86
2022-10-12T11:41:02.390Z,86
2022-10-12T11:41:52.462Z,86
2022-10-12T11:42:48.901Z,86
2022-10-12T11:43:54.915Z,85
2022-10-12T11:45:02.107Z,85
2022-10-12T11:46:09.197Z,85
2022-10-12T11:47:16.429Z,85
2022-10-12T11:48:26.948Z,85
2022-10-12T11:49:29.975Z,85
2022-10-12T11:50:37.128Z,84
2022-10-12T11:51:44.223Z,84
2022-10-12T11:52:51.261Z,84
2022-10-12T11:53:58.339Z,84
2022-10-12T11:55:04.962Z,84
2022-10-12T11:56:15.114Z,84
2022-10-12T11:57:19.173Z,84
2022-10-12T11:58:42.212Z,84
2022-10-12T11:59:33.321Z,83
2022-10-12T12:01:47.279Z,83
2022-10-12T12:02:54.213Z,83
2022-10-12T12:04:17.091Z,83
2022-10-12T12:05:11.689Z,83
2022-10-12T12:07:22.099Z,83
2022-10-12T12:08:29.228Z,83
2022-10-12T12:09:36.276Z,83
2022-10-12T12:10:43.413Z,82
2022-10-12T12:12:57.177Z,82
2022-10-12T12:14:04.181Z,82
2022-10-12T12:15:11.304Z,82
2022-10-12T12:16:18.425Z,81
2022-10-12T12:17:30.784Z,81
2022-10-12T12:18:32.104Z,81
2022-10-12T12:19:39.419Z,80
2022-10-12T12:20:46.323Z,80
2022-10-12T12:21:53.407Z,80
2022-10-12T12:23:00.074Z,80
2022-10-12T12:24:08.176Z,80
2022-10-12T12:25:14.254Z,80
2022-10-12T12:26:21.276Z,80
2022-10-12T12:28:35.170Z,80
2022-10-12T12:29:42.328Z,80
2022-10-12T12:30:49.782Z,80
2022-10-12T12:31:56.358Z,80
2022-10-12T12:33:02.951Z,80
2022-10-12T12:34:10.042Z,80
2022-10-12T12:35:17.137Z,80
2022-10-12T12:36:24.240Z,80
2022-10-12T12:37:31.277Z,80
2022-10-12T12:38:37.898Z,80
2022-10-12T12:39:45.257Z,80
2022-10-12T12:40:52.073Z,80
2022-10-12T12:42:02.340Z,80
2022-10-12T12:43:06.323Z,80
2022-10-12T12:44:12.942Z,80
2022-10-12T12:45:20.087Z,80
2022-10-12T12:46:27.167Z,80
2022-10-12T12:48:41.306Z,79
2022-10-12T12:49:47.935Z,79
2022-10-12T12:50:55.037Z,79
2022-10-12T12:52:02.187Z,79
2022-10-12T12:53:09.257Z,79
2022-10-12T12:54:16.407Z,79
2022-10-12T12:55:22.952Z,79
2022-10-12T12:56:30.066Z,79
2022-10-12T12:57:37.232Z,79
2022-10-12T12:58:44.285Z,79
2022-10-12T12:59:51.309Z,79
2022-10-12T13:00:58.031Z,80
2022-10-12T13:02:05.192Z,80
2022-10-12T13:04:19.270Z,79
2022-10-12T13:05:26.927Z,79
2022-10-12T13:06:32.952Z,79
2022-10-12T13:07:40.092Z,79
2022-10-12T13:08:47.187Z,79
2022-10-12T13:09:54.303Z,80
2022-10-12T13:11:01.320Z,80
2022-10-12T13:12:07.956Z,80
2022-10-12T13:13:15.055Z,79
2022-10-12T13:14:22.173Z,79
2022-10-12T13:17:26.817Z,78
2022-10-12T13:17:43.234Z,78
2022-10-12T13:18:50.087Z,79
2022-10-12T13:19:57.185Z,79
2022-10-12T13:21:04.272Z,79
2022-10-12T13:22:11.429Z,79
2022-10-12T13:23:17.982Z,79
2022-10-12T13:24:25.053Z,79
2022-10-12T13:25:32.191Z,79
2022-10-12T13:26:39.302Z,78
2022-10-12T13:27:46.497Z,79
2022-10-12T13:30:00.075Z,78
2022-10-12T13:32:14.277Z,78
2022-10-12T13:33:20.908Z,78
2022-10-12T13:34:28.501Z,78
2022-10-12T13:35:35.082Z,78
2022-10-12T13:36:42.181Z,78
2022-10-12T13:37:49.339Z,78
2022-10-12T13:38:55.956Z,78
2022-10-12T13:40:03.006Z,78
2022-10-12T13:41:10.159Z,78
2022-10-12T13:42:17.179Z,77
2022-10-12T13:43:24.306Z,77
2022-10-12T13:44:30.890Z,77
2022-10-12T13:45:37.977Z,77
2022-10-12T13:46:45.675Z,77
2022-10-12T13:47:52.198Z,77
2022-10-12T13:49:00.346Z,77
2022-10-12T13:50:05.946Z,77
2022-10-12T13:51:13.031Z,77
2022-10-12T13:52:20.162Z,77
2022-10-12T13:53:27.287Z,77
2022-10-12T13:54:34.359Z,77
2022-10-12T13:56:48.008Z,77
2022-10-12T13:57:55.141Z,77
2022-10-12T14:00:09.374Z,76
2022-10-12T14:01:16.038Z,76
2022-10-12T14:02:23.116Z,76
2022-10-12T14:03:30.108Z,76
2022-10-12T14:04:37.209Z,75
2022-10-12T14:05:44.416Z,75
2022-10-12T14:06:50.959Z,75
2022-10-12T14:07:58.211Z,75
2022-10-12T14:09:05.189Z,75
2022-10-12T14:10:12.346Z,75
2022-10-12T14:11:19.393Z,75
2022-10-12T14:12:25.978Z,75
2022-10-12T14:13:34.233Z,75
2022-10-12T14:14:40.194Z,75
2022-10-12T14:15:47.293Z,75
2022-10-12T14:16:54.391Z,75
2022-10-12T14:18:01.071Z,75
2022-10-12T14:20:15.206Z,75
2022-10-12T14:21:22.205Z,75
2022-10-12T14:22:32.165Z,75
2022-10-12T14:23:35.933Z,75
2022-10-12T14:24:43.052Z,74
2022-10-12T14:25:50.204Z,74
2022-10-12T14:28:05.013Z,74
2022-10-12T14:29:10.957Z,74
2022-10-12T14:30:18.106Z,74
2022-10-12T14:31:25.202Z,74
2022-10-12T14:32:32.442Z,74
2022-10-12T14:33:38.844Z,74
2022-10-12T14:34:46.016Z,74
2022-10-12T14:35:53.115Z,74
2022-10-12T14:37:00.230Z,74
2022-10-12T14:38:07.857Z,74
2022-10-12T14:39:13.865Z,74
2022-10-12T14:40:20.991Z,74
2022-10-12T14:41:28.072Z,74
2022-10-12T14:42:35.206Z,74
2022-10-12T14:43:42.352Z,74
2022-10-12T14:44:48.911Z,74
2022-10-12T14:45:55.997Z,74
2022-10-12T14:47:03.096Z,74
2022-10-12T14:48:10.301Z,74
2022-10-12T14:49:17.253Z,74
2022-10-12T14:50:23.842Z,74
2022-10-12T14:51:30.945Z,74
2022-10-12T14:52:38.071Z,74
2022-10-12T14:53:45.236Z,74
2022-10-12T14:55:58.934Z,73
2022-10-12T14:57:05.973Z,73
2022-10-12T14:58:13.126Z,73
2022-10-12T14:59:20.199Z,72
2022-10-12T15:00:27.356Z,72
2022-10-12T15:01:37.882Z,72
2022-10-12T15:02:41.065Z,72
2022-10-12T15:03:48.091Z,72
2022-10-12T15:04:55.206Z,72
2022-10-12T15:06:02.346Z,72
2022-10-12T15:07:08.950Z,71
2022-10-12T15:08:16.069Z,71
2022-10-12T15:09:22.605Z,71
2022-10-12T15:10:30.263Z,71
2022-10-12T15:11:37.362Z,71
2022-10-12T15:12:43.917Z,71
2022-10-12T15:13:51.033Z,72
2022-10-12T15:14:58.153Z,72
2022-10-12T15:16:05.288Z,72
2022-10-12T15:17:12.609Z,72
2022-10-12T15:18:19.053Z,72
2022-10-12T15:19:26.063Z,72
2022-10-12T15:20:33.079Z,72
2022-10-12T15:21:40.271Z,72
2022-10-12T15:22:46.863Z,72
2022-10-12T15:25:00.982Z,72
2022-10-12T15:26:08.188Z,72
2022-10-12T15:27:15.521Z,72
2022-10-12T15:28:21.962Z,72
2022-10-12T15:29:28.998Z,72
2022-10-12T15:30:47.507Z,73
2022-10-12T15:31:45.661Z,73
2022-10-12T15:32:50.373Z,73
2022-10-12T15:33:56.859Z,73
2022-10-12T15:35:04.021Z,72
2022-10-12T15:36:11.069Z,72
2022-10-12T15:37:18.429Z,72
2022-10-12T15:38:25.312Z,72
2022-10-12T15:39:31.896Z,72
2022-10-12T15:40:38.979Z,72
2022-10-12T15:41:46.640Z,71
2022-10-12T15:42:53.209Z,71
2022-10-12T15:44:00.363Z,71
2022-10-12T15:45:06.879Z,70
2022-10-12T15:46:14.030Z,70
2022-10-12T15:47:21.092Z,70
2022-10-12T15:48:28.620Z,70
2022-10-12T15:49:35.324Z,70
2022-10-12T15:50:42.940Z,70
2022-10-12T15:51:48.945Z,70
2022-10-12T15:52:56.251Z,70
2022-10-12T15:54:03.208Z,70
2022-10-12T15:55:10.344Z,70
2022-10-12T15:56:16.846Z,69
2022-10-12T15:57:23.960Z,69
2022-10-12T15:58:31.157Z,69
2022-10-12T15:59:38.259Z,69
2022-10-12T16:00:45.387Z,69
2022-10-12T16:01:51.870Z,69
2022-10-12T16:02:59.098Z,69
2022-10-12T16:04:06.110Z,70
2022-10-12T16:05:13.217Z,70
2022-10-12T16:06:20.340Z,70
2022-10-12T16:07:26.976Z,70
2022-10-12T16:08:34.020Z,70
2022-10-12T16:09:41.101Z,70
2022-10-12T16:10:48.229Z,70
2022-10-12T16:11:55.278Z,70
2022-10-12T16:13:01.835Z,70
2022-10-12T16:14:09.031Z,70
2022-10-12T16:15:16.142Z,70
2022-10-12T16:16:23.228Z,70
2022-10-12T16:17:30.477Z,70
2022-10-12T16:18:36.936Z,71
2022-10-12T16:19:44.048Z,71
2022-10-12T16:20:53.975Z,71
2022-10-12T16:21:58.249Z,71
2022-10-12T16:23:05.424Z,70
2022-10-12T16:24:11.850Z,70
2022-10-12T16:27:33.287Z,70
2022-10-12T16:28:40.386Z,71
2022-10-12T16:29:46.893Z,71
2022-10-12T16:30:54.011Z,71
2022-10-12T16:32:00.590Z,72
2022-10-12T16:33:08.315Z,72
2022-10-12T16:34:14.894Z,72
2022-10-12T16:35:21.946Z,73
2022-10-12T16:36:29.021Z,73
2022-10-12T16:37:36.156Z,73
2022-10-12T16:38:43.188Z,73
2022-10-12T16:39:49.839Z,73
2022-10-12T16:40:56.957Z,73
2022-10-12T16:42:04.003Z,73
2022-10-12T16:43:11.142Z,73
2022-10-12T16:44:18.277Z,73
2022-10-12T16:45:25.411Z,73
2022-10-12T16:46:31.956Z,73
2022-10-12T16:47:42.826Z,73
2022-10-12T16:48:46.090Z,73
2022-10-12T16:49:53.202Z,73
2022-10-12T16:50:59.872Z,73
2022-10-12T16:54:21.236Z,74
2022-10-12T16:55:28.322Z,74
2022-10-12T16:56:37.172Z,74
2022-10-12T16:57:41.907Z,74
2022-10-12T16:58:49.039Z,74
2022-10-12T16:59:56.333Z,74
2022-10-12T17:01:03.365Z,74
2022-10-12T17:02:09.838Z,75
2022-10-12T17:03:17.009Z,75
2022-10-12T17:04:24.059Z,75
2022-10-12T17:05:31.468Z,75